sensor_id;sensor_type;location;lat;lon;timestamp;P1;P2;P0
73973;PMS5003;62336;-26.094;27.994;2023-02-05T00:01:46;6;6;
73973;PMS5003;62336;-26.094;27.994;2023-02-05T00:04:11;10;10;
73973;PMS5003;62336;-26.094;27.994;2023-02-05T00:06:38;7;6;
73973;PMS5003;62336;-26.094;27.994;2023-02-05T00:09:03;5;5;
73973;PMS5003;62336;-26.094;27.994;2023-02-05T00:11:29;8;8;
73973;PMS5003;62336;-26.094;27.994;2023-02-05T00:13:55;9;8;
73973;PMS5003;62336;-26.094;27.994;2023-02-05T00:16:21;8;8;
73973;PMS5003;62336;-26.094;27.994;2023-02-05T00:18:46;9;8;
73973;PMS5003;62336;-26.094;27.994;2023-02-05T00:21:13;8;8;
73973;PMS5003;62336;-26.094;27.994;2023-02-05T00:23:38;10;10;
73973;PMS5003;62336;-26.094;27.994;2023-02-05T00:26:04;11;10;
73973;PMS5003;62336;-26.094;27.994;2023-02-05T00:28:30;11;10;
73973;PMS5003;62336;-26.094;27.994;2023-02-05T00:30:55;8;7;
73973;PMS5003;62336;-26.094;27.994;2023-02-05T00:33:20;8;8;
73973;PMS5003;62336;-26.094;27.994;2023-02-05T00:35:45;11;9;
73973;PMS5003;62336;-26.094;27.994;2023-02-05T00:38:11;8;8;
73973;PMS5003;62336;-26.094;27.994;2023-02-05T00:40:36;10;7;
73973;PMS5003;62336;-26.094;27.994;2023-02-05T00:43:02;7;7;
73973;PMS5003;62336;-26.094;27.994;2023-02-05T00:45:28;8;8;
73973;PMS5003;62336;-26.094;27.994;2023-02-05T00:47:54;8;8;
73973;PMS5003;62336;-26.094;27.994;2023-02-05T00:50:20;7;6;
73973;PMS5003;62336;-26.094;27.994;2023-02-05T00:52:45;5;5;
73973;PMS5003;62336;-26.094;27.994;2023-02-05T00:55:11;7;7;
73973;PMS5003;62336;-26.094;27.994;2023-02-05T00:57:37;4;4;
73973;PMS5003;62336;-26.094;27.994;2023-02-05T01:00:03;7;6;
73973;PMS5003;62336;-26.094;27.994;2023-02-05T01:02:29;4;4;
73973;PMS5003;62336;-26.094;27.994;2023-02-05T01:04:55;5;5;
73973;PMS5003;62336;-26.094;27.994;2023-02-05T01:07:21;3;3;
73973;PMS5003;62336;-26.094;27.994;2023-02-05T01:09:46;5;5;
73973;PMS5003;62336;-26.094;27.994;2023-02-05T01:12:12;6;6;
73973;PMS5003;62336;-26.094;27.994;2023-02-05T01:14:38;4;4;
73973;PMS5003;62336;-26.094;27.994;2023-02-05T01:17:04;3;3;
73973;PMS5003;62336;-26.094;27.994;2023-02-05T01:19:30;7;6;
73973;PMS5003;62336;-26.094;27.994;2023-02-05T01:21:55;3;3;
73973;PMS5003;62336;-26.094;27.994;2023-02-05T01:24:21;4;4;
73973;PMS5003;62336;-26.094;27.994;2023-02-05T01:26:48;6;5;
73973;PMS5003;62336;-26.094;27.994;2023-02-05T01:29:12;3;3;
73973;PMS5003;62336;-26.094;27.994;2023-02-05T01:31:38;5;4;
73973;PMS5003;62336;-26.094;27.994;2023-02-05T01:34:04;6;4;
73973;PMS5003;62336;-26.094;27.994;2023-02-05T01:36:29;6;6;
73973;PMS5003;62336;-26.094;27.994;2023-02-05T01:38:55;5;5;
73973;PMS5003;62336;-26.094;27.994;2023-02-05T01:41:22;6;6;
73973;PMS5003;62336;-26.094;27.994;2023-02-05T01:46:16;6;5;
73973;PMS5003;62336;-26.094;27.994;2023-02-05T01:48:40;5;4;
73973;PMS5003;62336;-26.094;27.994;2023-02-05T01:51:08;6;5;
73973;PMS5003;62336;-26.094;27.994;2023-02-05T01:53:35;5;5;
73973;PMS5003;62336;-26.094;27.994;2023-02-05T01:55:59;8;6;
73973;PMS5003;62336;-26.094;27.994;2023-02-05T01:58:22;5;4;
73973;PMS5003;62336;-26.094;27.994;2023-02-05T02:00:47;4;4;
73973;PMS5003;62336;-26.094;27.994;2023-02-05T02:03:14;5;4;
73973;PMS5003;62336;-26.094;27.994;2023-02-05T02:05:39;5;5;
73973;PMS5003;62336;-26.094;27.994;2023-02-05T02:08:05;5;5;
73973;PMS5003;62336;-26.094;27.994;2023-02-05T02:10:31;4;4;
73973;PMS5003;62336;-26.094;27.994;2023-02-05T02:12:56;8;7;
73973;PMS5003;62336;-26.094;27.994;2023-02-05T02:15:22;4;4;
73973;PMS5003;62336;-26.094;27.994;2023-02-05T02:17:49;4;4;
73973;PMS5003;62336;-26.094;27.994;2023-02-05T02:20:16;7;6;
73973;PMS5003;62336;-26.094;27.994;2023-02-05T02:22:43;6;5;
73973;PMS5003;62336;-26.094;27.994;2023-02-05T02:27:38;5;5;
73973;PMS5003;62336;-26.094;27.994;2023-02-05T02:29:56;7;6;
73973;PMS5003;62336;-26.094;27.994;2023-02-05T02:32:22;8;8;
73973;PMS5003;62336;-26.094;27.994;2023-02-05T02:34:47;9;8;
73973;PMS5003;62336;-26.094;27.994;2023-02-05T02:37:13;9;8;
73973;PMS5003;62336;-26.094;27.994;2023-02-05T02:39:39;13;12;
73973;PMS5003;62336;-26.094;27.994;2023-02-05T02:42:04;10;10;
73973;PMS5003;62336;-26.094;27.994;2023-02-05T02:44:31;10;9;
73973;PMS5003;62336;-26.094;27.994;2023-02-05T02:46:55;8;7;
73973;PMS5003;62336;-26.094;27.994;2023-02-05T02:49:21;9;8;
73973;PMS5003;62336;-26.094;27.994;2023-02-05T02:51:46;8;7;
73973;PMS5003;62336;-26.094;27.994;2023-02-05T02:54:13;7;7;
73973;PMS5003;62336;-26.094;27.994;2023-02-05T02:56:38;6;5;
73973;PMS5003;62336;-26.094;27.994;2023-02-05T02:59:04;5;5;
73973;PMS5003;62336;-26.094;27.994;2023-02-05T03:01:29;5;5;
73973;PMS5003;62336;-26.094;27.994;2023-02-05T03:03:56;6;6;
73973;PMS5003;62336;-26.094;27.994;2023-02-05T03:06:20;7;7;
73973;PMS5003;62336;-26.094;27.994;2023-02-05T03:08:48;6;5;
73973;PMS5003;62336;-26.094;27.994;2023-02-05T03:11:12;7;7;
73973;PMS5003;62336;-26.094;27.994;2023-02-05T03:13:37;9;8;
73973;PMS5003;62336;-26.094;27.994;2023-02-05T03:16:03;9;8;
73973;PMS5003;62336;-26.094;27.994;2023-02-05T03:18:28;9;8;
73973;PMS5003;62336;-26.094;27.994;2023-02-05T03:20:55;6;5;
73973;PMS5003;62336;-26.094;27.994;2023-02-05T03:25:46;7;7;
73973;PMS5003;62336;-26.094;27.994;2023-02-05T03:28:11;8;7;
73973;PMS5003;62336;-26.094;27.994;2023-02-05T03:30:39;7;6;
73973;PMS5003;62336;-26.094;27.994;2023-02-05T03:33:05;6;6;
73973;PMS5003;62336;-26.094;27.994;2023-02-05T03:35:30;6;5;
73973;PMS5003;62336;-26.094;27.994;2023-02-05T03:37:59;10;9;
73973;PMS5003;62336;-26.094;27.994;2023-02-05T03:40:21;6;6;
73973;PMS5003;62336;-26.094;27.994;2023-02-05T03:42:48;4;4;
73973;PMS5003;62336;-26.094;27.994;2023-02-05T03:45:16;5;5;
73973;PMS5003;62336;-26.094;27.994;2023-02-05T03:47:40;6;6;
73973;PMS5003;62336;-26.094;27.994;2023-02-05T03:50:07;8;8;
73973;PMS5003;62336;-26.094;27.994;2023-02-05T03:52:31;8;7;
73973;PMS5003;62336;-26.094;27.994;2023-02-05T03:54:57;8;8;
73973;PMS5003;62336;-26.094;27.994;2023-02-05T03:57:21;8;7;
73973;PMS5003;62336;-26.094;27.994;2023-02-05T03:59:47;8;7;
73973;PMS5003;62336;-26.094;27.994;2023-02-05T04:02:12;8;7;
73973;PMS5003;62336;-26.094;27.994;2023-02-05T04:04:38;10;10;
73973;PMS5003;62336;-26.094;27.994;2023-02-05T04:07:04;10;9;
73973;PMS5003;62336;-26.094;27.994;2023-02-05T04:09:30;9;9;
73973;PMS5003;62336;-26.094;27.994;2023-02-05T04:11:55;8;8;
73973;PMS5003;62336;-26.094;27.994;2023-02-05T04:14:21;8;8;
73973;PMS5003;62336;-26.094;27.994;2023-02-05T04:16:47;9;9;
73973;PMS5003;62336;-26.094;27.994;2023-02-05T04:19:13;8;8;
73973;PMS5003;62336;-26.094;27.994;2023-02-05T04:21:38;9;8;
73973;PMS5003;62336;-26.094;27.994;2023-02-05T04:24:04;7;7;
73973;PMS5003;62336;-26.094;27.994;2023-02-05T04:26:29;9;8;
73973;PMS5003;62336;-26.094;27.994;2023-02-05T04:28:55;10;9;
73973;PMS5003;62336;-26.094;27.994;2023-02-05T04:31:21;9;9;
73973;PMS5003;62336;-26.094;27.994;2023-02-05T04:33:46;11;9;
73973;PMS5003;62336;-26.094;27.994;2023-02-05T04:36:12;9;8;
73973;PMS5003;62336;-26.094;27.994;2023-02-05T04:38:37;7;7;
73973;PMS5003;62336;-26.094;27.994;2023-02-05T04:41:02;8;8;
73973;PMS5003;62336;-26.094;27.994;2023-02-05T04:43:27;7;7;
73973;PMS5003;62336;-26.094;27.994;2023-02-05T04:45:53;11;11;
73973;PMS5003;62336;-26.094;27.994;2023-02-05T04:48:18;8;7;
73973;PMS5003;62336;-26.094;27.994;2023-02-05T04:50:44;9;8;
73973;PMS5003;62336;-26.094;27.994;2023-02-05T04:53:09;10;10;
73973;PMS5003;62336;-26.094;27.994;2023-02-05T04:55:35;9;8;
73973;PMS5003;62336;-26.094;27.994;2023-02-05T04:58:01;8;7;
73973;PMS5003;62336;-26.094;27.994;2023-02-05T05:00:26;10;10;
73973;PMS5003;62336;-26.094;27.994;2023-02-05T05:02:52;8;8;
73973;PMS5003;62336;-26.094;27.994;2023-02-05T05:05:17;9;8;
73973;PMS5003;62336;-26.094;27.994;2023-02-05T05:07:43;6;6;
73973;PMS5003;62336;-26.094;27.994;2023-02-05T05:10:09;8;7;
73973;PMS5003;62336;-26.094;27.994;2023-02-05T05:12:35;7;6;
73973;PMS5003;62336;-26.094;27.994;2023-02-05T05:15:00;9;8;
73973;PMS5003;62336;-26.094;27.994;2023-02-05T05:17:26;9;9;
73973;PMS5003;62336;-26.094;27.994;2023-02-05T05:19:51;5;5;
73973;PMS5003;62336;-26.094;27.994;2023-02-05T05:22:17;7;7;
73973;PMS5003;62336;-26.094;27.994;2023-02-05T05:24:43;6;6;
73973;PMS5003;62336;-26.094;27.994;2023-02-05T05:27:09;4;4;
73973;PMS5003;62336;-26.094;27.994;2023-02-05T05:29:34;8;8;
73973;PMS5003;62336;-26.094;27.994;2023-02-05T05:31:58;7;7;
73973;PMS5003;62336;-26.094;27.994;2023-02-05T05:34:25;7;7;
73973;PMS5003;62336;-26.094;27.994;2023-02-05T05:36:50;7;7;
73973;PMS5003;62336;-26.094;27.994;2023-02-05T05:39:15;6;5;
73973;PMS5003;62336;-26.094;27.994;2023-02-05T05:41:40;8;8;
73973;PMS5003;62336;-26.094;27.994;2023-02-05T05:44:06;6;6;
73973;PMS5003;62336;-26.094;27.994;2023-02-05T05:46:32;8;6;
73973;PMS5003;62336;-26.094;27.994;2023-02-05T05:48:58;8;8;
73973;PMS5003;62336;-26.094;27.994;2023-02-05T05:51:23;7;7;
73973;PMS5003;62336;-26.094;27.994;2023-02-05T05:53:54;5;5;
73973;PMS5003;62336;-26.094;27.994;2023-02-05T05:56:15;6;5;
73973;PMS5003;62336;-26.094;27.994;2023-02-05T05:58:40;6;5;
73973;PMS5003;62336;-26.094;27.994;2023-02-05T06:01:05;6;6;
73973;PMS5003;62336;-26.094;27.994;2023-02-05T06:03:30;5;4;
73973;PMS5003;62336;-26.094;27.994;2023-02-05T06:05:58;7;7;
73973;PMS5003;62336;-26.094;27.994;2023-02-05T06:08:21;5;5;
73973;PMS5003;62336;-26.094;27.994;2023-02-05T06:10:48;6;6;
73973;PMS5003;62336;-26.094;27.994;2023-02-05T06:13:12;6;5;
73973;PMS5003;62336;-26.094;27.994;2023-02-05T06:15:38;7;5;
73973;PMS5003;62336;-26.094;27.994;2023-02-05T06:18:04;7;6;
73973;PMS5003;62336;-26.094;27.994;2023-02-05T06:20:30;4;4;
73973;PMS5003;62336;-26.094;27.994;2023-02-05T06:22:56;5;4;
73973;PMS5003;62336;-26.094;27.994;2023-02-05T06:25:21;8;8;
73973;PMS5003;62336;-26.094;27.994;2023-02-05T06:27:46;6;5;
73973;PMS5003;62336;-26.094;27.994;2023-02-05T06:30:12;3;3;
73973;PMS5003;62336;-26.094;27.994;2023-02-05T06:32:39;3;3;
73973;PMS5003;62336;-26.094;27.994;2023-02-05T06:35:04;3;3;
73973;PMS5003;62336;-26.094;27.994;2023-02-05T06:37:30;4;3;
73973;PMS5003;62336;-26.094;27.994;2023-02-05T06:39:56;2;2;
73973;PMS5003;62336;-26.094;27.994;2023-02-05T06:42:22;6;5;
73973;PMS5003;62336;-26.094;27.994;2023-02-05T06:44:47;5;5;
73973;PMS5003;62336;-26.094;27.994;2023-02-05T06:47:13;4;4;
73973;PMS5003;62336;-26.094;27.994;2023-02-05T06:49:39;7;6;
73973;PMS5003;62336;-26.094;27.994;2023-02-05T06:52:05;4;4;
73973;PMS5003;62336;-26.094;27.994;2023-02-05T06:54:31;7;5;
73973;PMS5003;62336;-26.094;27.994;2023-02-05T06:56:56;5;5;
73973;PMS5003;62336;-26.094;27.994;2023-02-05T06:59:21;6;6;
73973;PMS5003;62336;-26.094;27.994;2023-02-05T07:01:47;6;5;
73973;PMS5003;62336;-26.094;27.994;2023-02-05T07:04:12;6;6;
73973;PMS5003;62336;-26.094;27.994;2023-02-05T07:06:37;5;5;
73973;PMS5003;62336;-26.094;27.994;2023-02-05T07:09:03;8;7;
73973;PMS5003;62336;-26.094;27.994;2023-02-05T07:11:27;7;7;
73973;PMS5003;62336;-26.094;27.994;2023-02-05T07:13:53;5;5;
73973;PMS5003;62336;-26.094;27.994;2023-02-05T07:16:18;7;7;
73973;PMS5003;62336;-26.094;27.994;2023-02-05T07:18:43;6;6;
73973;PMS5003;62336;-26.094;27.994;2023-02-05T07:21:09;4;4;
73973;PMS5003;62336;-26.094;27.994;2023-02-05T07:23:35;7;6;
73973;PMS5003;62336;-26.094;27.994;2023-02-05T07:28:25;6;6;
73973;PMS5003;62336;-26.094;27.994;2023-02-05T07:30:50;3;3;
73973;PMS5003;62336;-26.094;27.994;2023-02-05T07:33:16;4;4;
73973;PMS5003;62336;-26.094;27.994;2023-02-05T07:35:42;6;6;
73973;PMS5003;62336;-26.094;27.994;2023-02-05T07:38:07;4;3;
73973;PMS5003;62336;-26.094;27.994;2023-02-05T07:40:35;3;3;
73973;PMS5003;62336;-26.094;27.994;2023-02-05T07:42:59;3;3;
73973;PMS5003;62336;-26.094;27.994;2023-02-05T07:45:25;3;3;
73973;PMS5003;62336;-26.094;27.994;2023-02-05T07:47:51;3;3;
73973;PMS5003;62336;-26.094;27.994;2023-02-05T07:50:17;3;3;
73973;PMS5003;62336;-26.094;27.994;2023-02-05T07:52:43;5;5;
73973;PMS5003;62336;-26.094;27.994;2023-02-05T07:55:09;6;6;
73973;PMS5003;62336;-26.094;27.994;2023-02-05T07:57:34;5;5;
73973;PMS5003;62336;-26.094;27.994;2023-02-05T08:00:00;4;4;
73973;PMS5003;62336;-26.094;27.994;2023-02-05T08:02:25;6;4;
73973;PMS5003;62336;-26.094;27.994;2023-02-05T08:04:51;5;3;
73973;PMS5003;62336;-26.094;27.994;2023-02-05T08:07:16;3;3;
73973;PMS5003;62336;-26.094;27.994;2023-02-05T08:09:41;3;3;
73973;PMS5003;62336;-26.094;27.994;2023-02-05T08:12:06;2;2;
73973;PMS5003;62336;-26.094;27.994;2023-02-05T08:14:31;3;3;
73973;PMS5003;62336;-26.094;27.994;2023-02-05T08:16:56;5;4;
73973;PMS5003;62336;-26.094;27.994;2023-02-05T08:19:21;4;4;
73973;PMS5003;62336;-26.094;27.994;2023-02-05T08:21:47;4;4;
73973;PMS5003;62336;-26.094;27.994;2023-02-05T08:24:13;6;5;
73973;PMS5003;62336;-26.094;27.994;2023-02-05T08:26:38;4;4;
73973;PMS5003;62336;-26.094;27.994;2023-02-05T08:29:03;6;4;
73973;PMS5003;62336;-26.094;27.994;2023-02-05T08:31:28;7;7;
73973;PMS5003;62336;-26.094;27.994;2023-02-05T08:33:53;8;8;
73973;PMS5003;62336;-26.094;27.994;2023-02-05T08:36:18;10;10;
73973;PMS5003;62336;-26.094;27.994;2023-02-05T08:38:44;10;10;
73973;PMS5003;62336;-26.094;27.994;2023-02-05T08:41:09;10;9;
73973;PMS5003;62336;-26.094;27.994;2023-02-05T08:43:34;12;10;
73973;PMS5003;62336;-26.094;27.994;2023-02-05T08:45:59;10;8;
73973;PMS5003;62336;-26.094;27.994;2023-02-05T08:48:24;3;3;
73973;PMS5003;62336;-26.094;27.994;2023-02-05T08:50:50;6;5;
73973;PMS5003;62336;-26.094;27.994;2023-02-05T08:53:15;4;4;
73973;PMS5003;62336;-26.094;27.994;2023-02-05T08:55:40;6;6;
73973;PMS5003;62336;-26.094;27.994;2023-02-05T08:58:06;7;7;
73973;PMS5003;62336;-26.094;27.994;2023-02-05T09:00:31;9;8;
73973;PMS5003;62336;-26.094;27.994;2023-02-05T09:02:56;7;7;
73973;PMS5003;62336;-26.094;27.994;2023-02-05T09:05:22;9;8;
73973;PMS5003;62336;-26.094;27.994;2023-02-05T09:07:47;7;7;
73973;PMS5003;62336;-26.094;27.994;2023-02-05T09:10:12;7;6;
73973;PMS5003;62336;-26.094;27.994;2023-02-05T09:12:37;8;7;
73973;PMS5003;62336;-26.094;27.994;2023-02-05T09:15:02;10;9;
73973;PMS5003;62336;-26.094;27.994;2023-02-05T09:17:28;6;6;
73973;PMS5003;62336;-26.094;27.994;2023-02-05T09:19:53;8;6;
73973;PMS5003;62336;-26.094;27.994;2023-02-05T09:22:18;5;5;
73973;PMS5003;62336;-26.094;27.994;2023-02-05T09:24:43;6;6;
73973;PMS5003;62336;-26.094;27.994;2023-02-05T09:27:08;5;5;
73973;PMS5003;62336;-26.094;27.994;2023-02-05T09:29:34;4;3;
73973;PMS5003;62336;-26.094;27.994;2023-02-05T09:31:59;3;3;
73973;PMS5003;62336;-26.094;27.994;2023-02-05T09:34:24;4;4;
73973;PMS5003;62336;-26.094;27.994;2023-02-05T09:36:49;4;4;
73973;PMS5003;62336;-26.094;27.994;2023-02-05T09:39:15;1;1;
73973;PMS5003;62336;-26.094;27.994;2023-02-05T09:41:43;4;4;
73973;PMS5003;62336;-26.094;27.994;2023-02-05T09:44:06;3;3;
73973;PMS5003;62336;-26.094;27.994;2023-02-05T09:46:31;3;3;
73973;PMS5003;62336;-26.094;27.994;2023-02-05T09:48:57;4;4;
73973;PMS5003;62336;-26.094;27.994;2023-02-05T09:51:22;3;3;
73973;PMS5003;62336;-26.094;27.994;2023-02-05T09:53:47;1;1;
73973;PMS5003;62336;-26.094;27.994;2023-02-05T09:56:11;3;3;
73973;PMS5003;62336;-26.094;27.994;2023-02-05T09:58:38;4;4;
73973;PMS5003;62336;-26.094;27.994;2023-02-05T10:01:02;2;1;
73973;PMS5003;62336;-26.094;27.994;2023-02-05T10:03:27;5;3;
73973;PMS5003;62336;-26.094;27.994;2023-02-05T10:05:57;3;3;
73973;PMS5003;62336;-26.094;27.994;2023-02-05T10:08:17;4;4;
73973;PMS5003;62336;-26.094;27.994;2023-02-05T10:10:43;3;3;
73973;PMS5003;62336;-26.094;27.994;2023-02-05T10:13:19;3;3;
73973;PMS5003;62336;-26.094;27.994;2023-02-05T10:15:36;3;3;
73973;PMS5003;62336;-26.094;27.994;2023-02-05T10:18:02;4;4;
73973;PMS5003;62336;-26.094;27.994;2023-02-05T10:20:30;3;3;
73973;PMS5003;62336;-26.094;27.994;2023-02-05T10:22:52;4;3;
73973;PMS5003;62336;-26.094;27.994;2023-02-05T10:25:23;4;3;
73973;PMS5003;62336;-26.094;27.994;2023-02-05T10:27:40;3;3;
73973;PMS5003;62336;-26.094;27.994;2023-02-05T10:30:12;2;2;
73973;PMS5003;62336;-26.094;27.994;2023-02-05T10:32:31;2;2;
73973;PMS5003;62336;-26.094;27.994;2023-02-05T10:34:55;3;3;
73973;PMS5003;62336;-26.094;27.994;2023-02-05T10:37:19;3;3;
73973;PMS5003;62336;-26.094;27.994;2023-02-05T10:39:44;4;4;
73973;PMS5003;62336;-26.094;27.994;2023-02-05T10:42:14;4;4;
73973;PMS5003;62336;-26.094;27.994;2023-02-05T10:44:36;1;1;
73973;PMS5003;62336;-26.094;27.994;2023-02-05T10:47:01;2;2;
73973;PMS5003;62336;-26.094;27.994;2023-02-05T10:49:25;4;4;
73973;PMS5003;62336;-26.094;27.994;2023-02-05T10:51:50;6;6;
73973;PMS5003;62336;-26.094;27.994;2023-02-05T10:54:18;5;5;
73973;PMS5003;62336;-26.094;27.994;2023-02-05T10:56:42;4;3;
73973;PMS5003;62336;-26.094;27.994;2023-02-05T10:59:08;5;5;
73973;PMS5003;62336;-26.094;27.994;2023-02-05T11:01:33;5;5;
73973;PMS5003;62336;-26.094;27.994;2023-02-05T11:03:58;4;3;
73973;PMS5003;62336;-26.094;27.994;2023-02-05T11:06:24;4;4;
73973;PMS5003;62336;-26.094;27.994;2023-02-05T11:08:48;5;4;
73973;PMS5003;62336;-26.094;27.994;2023-02-05T11:11:19;5;5;
73973;PMS5003;62336;-26.094;27.994;2023-02-05T11:13:38;6;6;
73973;PMS5003;62336;-26.094;27.994;2023-02-05T11:16:04;4;4;
73973;PMS5003;62336;-26.094;27.994;2023-02-05T11:18:29;6;6;
73973;PMS5003;62336;-26.094;27.994;2023-02-05T11:20:54;4;4;
73973;PMS5003;62336;-26.094;27.994;2023-02-05T11:23:20;6;6;
73973;PMS5003;62336;-26.094;27.994;2023-02-05T11:28:14;6;6;
73973;PMS5003;62336;-26.094;27.994;2023-02-05T11:30:34;4;4;
73973;PMS5003;62336;-26.094;27.994;2023-02-05T11:32:58;6;6;
73973;PMS5003;62336;-26.094;27.994;2023-02-05T11:35:24;5;5;
73973;PMS5003;62336;-26.094;27.994;2023-02-05T11:37:51;8;6;
73973;PMS5003;62336;-26.094;27.994;2023-02-05T11:40:19;6;5;
73973;PMS5003;62336;-26.094;27.994;2023-02-05T11:42:39;6;6;
73973;PMS5003;62336;-26.094;27.994;2023-02-05T11:45:13;7;7;
73973;PMS5003;62336;-26.094;27.994;2023-02-05T11:47:30;6;6;
73973;PMS5003;62336;-26.094;27.994;2023-02-05T11:49:54;7;6;
73973;PMS5003;62336;-26.094;27.994;2023-02-05T11:52:23;8;7;
73973;PMS5003;62336;-26.094;27.994;2023-02-05T11:54:45;8;7;
73973;PMS5003;62336;-26.094;27.994;2023-02-05T11:59:34;5;5;
73973;PMS5003;62336;-26.094;27.994;2023-02-05T12:04:25;6;6;
73973;PMS5003;62336;-26.094;27.994;2023-02-05T12:06:51;6;6;
73973;PMS5003;62336;-26.094;27.994;2023-02-05T12:09:16;7;6;
73973;PMS5003;62336;-26.094;27.994;2023-02-05T12:11:45;8;8;
73973;PMS5003;62336;-26.094;27.994;2023-02-05T12:14:08;5;5;
